Tachie, Canada
Current Conditions -  °F | °C
As of 7:29 AM on Thursday 30 Oct 2014 (Local Time) from CYZY Reporting Station
Haze Haze  
Wind Chill: 30°   Ceiling: 5500
Heat Index: 34°   Visibility: 6mi
Dew Point: 34°   Wind: 5mph
Humidity: 100%   Direction: 140°SE
Pressure: 29.88"   Gusts: NA
Location:  54.65°N, 124.77°W
Report Text: CYZY 301429Z AUTO 14004KT 6SM BR FEW004 OVC055 01/01 A2988 RMK SLP149
Loading
Personal Weather Stations






























Interactive Weather Map
Tropical Storm Tracking
New forecast layout! Learn more

10-Day Weather Forecast

Advertisements
Track Severe Weather on mobile